Terminal Aerodrome Forecast
Issued by NWS Tampa Bay Area, FL

Home | Current Version | Previous Version | Text Only | Print | Product List | Glossary On
Versions: 1 2 3 4 5 6 7 8 9 10 11 12 13 14 15 16
000
FTUS42 KTBW 240026 AAA
TAFFMY
TAF AMD
KFMY 240026Z 2400/2424 10005KT P6SM FEW030 SCT100 BKN250
     FM240200 VRB03KT P6SM FEW050 SCT100 BKN250
     FM241500 23006KT P6SM FEW025 SCT100 BKN250
     FM241800 26007KT P6SM VCTS SCT030CB SCT100 BKN250=

USA.gov is the U.S. government's official web portal to all federal, state and local government web resources and services.